createdAt,value
2023-01-30T00:00:58.574Z,83.76
2023-01-30T00:03:26.394Z,83.86
2023-01-30T00:05:54.643Z,83.12
2023-01-30T00:08:22.346Z,83.73
2023-01-30T00:10:50.221Z,83.90
2023-01-30T00:13:18.169Z,84.04
2023-01-30T00:15:48.586Z,83.91
2023-01-30T00:18:16.165Z,84.72
2023-01-30T00:20:43.725Z,84.50
2023-01-30T00:23:11.352Z,84.45
2023-01-30T00:25:38.995Z,85.16
2023-01-30T00:28:06.563Z,84.67
2023-01-30T00:30:34.489Z,84.98
2023-01-30T00:33:03.437Z,85.57
2023-01-30T00:35:31.083Z,85.40
2023-01-30T00:37:59.788Z,84.85
2023-01-30T00:40:29.303Z,84.88
2023-01-30T00:43:15.088Z,85.40
2023-01-30T00:46:03.590Z,85.61
2023-01-30T00:48:32.863Z,85.77
2023-01-30T00:51:01.136Z,85.49
2023-01-30T00:53:28.742Z,85.84
2023-01-30T00:55:57.125Z,84.79
2023-01-30T00:58:25.470Z,85.60
2023-01-30T01:00:53.466Z,85.35
2023-01-30T01:03:21.139Z,86.00
2023-01-30T01:05:50.215Z,85.39
2023-01-30T01:08:18.042Z,85.54
2023-01-30T01:10:45.605Z,86.27
2023-01-30T01:13:13.152Z,85.75
2023-01-30T01:15:41.071Z,86.27
2023-01-30T01:18:08.618Z,86.02
2023-01-30T01:20:36.529Z,86.22
2023-01-30T01:23:05.402Z,85.33
2023-01-30T01:25:32.956Z,85.43
2023-01-30T01:28:06.470Z,85.63
2023-01-30T01:30:34.063Z,85.71
2023-01-30T01:33:01.708Z,85.73
2023-01-30T01:35:29.317Z,86.01
2023-01-30T01:37:57.112Z,86.14
2023-01-30T01:40:43.555Z,85.97
2023-01-30T01:43:17.841Z,86.47
2023-01-30T01:45:49.592Z,86.76
2023-01-30T01:48:23.841Z,85.84
2023-01-30T01:50:56.207Z,85.41
2023-01-30T01:53:29.185Z,85.70
2023-01-30T01:56:00.760Z,85.68
2023-01-30T01:58:32.386Z,85.44
2023-01-30T02:01:01.012Z,86.28
2023-01-30T02:03:31.828Z,86.44
2023-01-30T02:06:03.583Z,85.92
2023-01-30T02:08:35.735Z,85.78
2023-01-30T02:11:10.525Z,86.96
2023-01-30T02:13:38.647Z,86.24
2023-01-30T02:16:08.515Z,86.19
2023-01-30T02:18:40.612Z,86.36
2023-01-30T02:21:37.949Z,85.70
2023-01-30T02:24:26.811Z,85.65
2023-01-30T02:27:09.013Z,85.14
2023-01-30T02:30:06.543Z,85.55
2023-01-30T02:32:45.959Z,84.61
2023-01-30T02:35:25.446Z,84.48
2023-01-30T02:38:10.536Z,83.79
2023-01-30T02:40:46.202Z,83.69
2023-01-30T02:47:46.625Z,83.20
2023-01-30T02:50:20.183Z,82.57
2023-01-30T02:52:48.580Z,82.87
2023-01-30T02:55:22.516Z,82.63
2023-01-30T02:57:50.321Z,82.75
2023-01-30T03:00:23.951Z,80.92
2023-01-30T03:03:13.056Z,80.60
2023-01-30T03:05:54.565Z,80.72
2023-01-30T03:08:30.222Z,80.27
2023-01-30T03:11:02.330Z,80.67
2023-01-30T03:13:42.072Z,80.15
2023-01-30T03:16:13.700Z,78.59
2023-01-30T03:18:43.601Z,78.68
2023-01-30T03:21:12.414Z,78.25
2023-01-30T03:23:39.988Z,78.32
2023-01-30T03:26:15.135Z,78.73
2023-01-30T03:28:43.099Z,78.93
2023-01-30T03:31:11.288Z,79.01
2023-01-30T03:33:38.946Z,78.88
2023-01-30T03:36:09.682Z,78.98
2023-01-30T03:38:37.988Z,79.13
2023-01-30T03:41:06.689Z,79.02
2023-01-30T03:43:35.035Z,79.07
2023-01-30T03:46:04.639Z,76.80
2023-01-30T03:48:32.256Z,76.82
2023-01-30T03:51:00.215Z,77.41
2023-01-30T03:53:29.185Z,77.94
2023-01-30T03:55:59.146Z,78.05
2023-01-30T03:58:31.415Z,78.15
2023-01-30T04:01:02.152Z,77.00
2023-01-30T04:03:29.841Z,76.75
2023-01-30T04:05:59.838Z,76.20
2023-01-30T04:08:29.016Z,75.87
2023-01-30T04:10:56.848Z,75.81
2023-01-30T04:13:24.739Z,75.55
2023-01-30T04:15:52.743Z,75.09
2023-01-30T04:18:26.210Z,74.59
2023-01-30T04:21:01.101Z,74.28
2023-01-30T04:23:38.044Z,73.94
2023-01-30T04:26:06.109Z,73.27
2023-01-30T04:28:37.663Z,73.87
2023-01-30T04:31:05.868Z,74.00
2023-01-30T04:34:05.632Z,73.58
2023-01-30T04:36:33.357Z,73.51
2023-01-30T04:39:02.390Z,73.98
2023-01-30T04:41:31.721Z,74.16
2023-01-30T04:44:01.691Z,74.00
2023-01-30T04:46:43.511Z,73.78
2023-01-30T04:49:14.936Z,73.35
2023-01-30T04:51:45.673Z,73.61
2023-01-30T04:54:14.639Z,73.51
2023-01-30T04:56:42.516Z,73.68
2023-01-30T04:59:10.198Z,73.98
2023-01-30T05:01:42.961Z,74.08
2023-01-30T05:04:10.830Z,74.89
2023-01-30T05:06:38.583Z,74.14
2023-01-30T05:09:07.194Z,74.83
2023-01-30T05:11:36.554Z,74.18
2023-01-30T05:14:04.193Z,74.46
2023-01-30T05:16:32.056Z,73.91
2023-01-30T05:18:59.649Z,73.55
2023-01-30T05:21:28.746Z,74.00
2023-01-30T05:23:57.147Z,73.40
2023-01-30T05:26:25.362Z,73.84
2023-01-30T05:28:55.755Z,73.71
2023-01-30T05:31:24.051Z,73.31
2023-01-30T05:33:52.339Z,73.76
2023-01-30T05:36:21.682Z,74.21
2023-01-30T05:38:49.417Z,74.31
2023-01-30T05:41:18.364Z,73.79
2023-01-30T05:43:50.566Z,74.30
2023-01-30T05:46:20.326Z,73.68
2023-01-30T05:48:47.966Z,73.84
2023-01-30T05:51:17.473Z,74.55
2023-01-30T05:53:45.027Z,74.07
2023-01-30T05:56:12.686Z,74.53
2023-01-30T05:58:40.383Z,74.83
2023-01-30T06:01:10.441Z,74.84
2023-01-30T06:03:41.807Z,74.91
2023-01-30T06:06:09.863Z,74.19
2023-01-30T06:08:37.431Z,74.26
2023-01-30T06:11:07.221Z,74.27
2023-01-30T06:13:34.989Z,73.72
2023-01-30T06:16:02.900Z,75.37
2023-01-30T06:18:30.734Z,74.56
2023-01-30T06:20:59.963Z,76.08
2023-01-30T06:23:27.581Z,73.87
2023-01-30T06:25:55.692Z,74.45
2023-01-30T06:28:25.174Z,74.40
2023-01-30T06:30:53.352Z,74.63
2023-01-30T06:33:21.540Z,74.86
2023-01-30T06:35:51.333Z,76.01
2023-01-30T06:38:20.920Z,75.87
2023-01-30T06:40:50.249Z,75.92
2023-01-30T06:43:18.593Z,76.07
2023-01-30T06:45:47.155Z,75.76
2023-01-30T06:48:14.796Z,76.22
2023-01-30T06:50:42.346Z,75.73
2023-01-30T06:53:10.247Z,75.81
2023-01-30T06:55:39.430Z,76.17
2023-01-30T06:58:08.838Z,76.24
2023-01-30T07:00:40.168Z,76.58
2023-01-30T07:03:11.606Z,76.12
2023-01-30T07:05:40.115Z,75.88
2023-01-30T07:08:07.884Z,75.96
2023-01-30T07:10:35.883Z,75.95
2023-01-30T07:13:05.828Z,75.32
2023-01-30T07:15:34.245Z,75.09
2023-01-30T07:18:01.983Z,74.77
2023-01-30T07:20:31.120Z,75.46
2023-01-30T07:22:58.874Z,75.58
2023-01-30T07:25:27.809Z,75.59
2023-01-30T07:27:56.948Z,76.29
2023-01-30T07:30:26.728Z,75.99
2023-01-30T07:32:55.897Z,75.90
2023-01-30T07:35:24.488Z,77.03
2023-01-30T07:37:52.715Z,77.48
2023-01-30T07:40:24.097Z,77.67
2023-01-30T07:42:58.883Z,78.37
2023-01-30T07:45:30.975Z,77.85
2023-01-30T07:47:58.589Z,78.29
2023-01-30T07:50:26.150Z,78.06
2023-01-30T07:52:53.707Z,77.94
2023-01-30T07:55:21.430Z,78.26
2023-01-30T07:57:49.121Z,78.57
2023-01-30T08:00:18.274Z,79.43
2023-01-30T08:02:47.457Z,80.15
2023-01-30T08:05:15.249Z,80.02
2023-01-30T08:07:42.778Z,85.89
2023-01-30T08:10:12.157Z,79.15
2023-01-30T08:12:40.482Z,78.92
2023-01-30T08:15:09.305Z,78.86
2023-01-30T08:17:37.203Z,78.91
2023-01-30T08:20:07.294Z,78.92
2023-01-30T08:22:34.892Z,78.98
2023-01-30T08:25:02.510Z,78.78
2023-01-30T08:27:30.004Z,78.43
2023-01-30T08:29:57.603Z,78.76
2023-01-30T08:32:25.136Z,78.28
2023-01-30T08:34:52.797Z,78.69
2023-01-30T08:37:21.644Z,78.68
2023-01-30T08:39:49.232Z,78.51
2023-01-30T08:42:16.915Z,78.55
2023-01-30T08:44:44.540Z,79.01
2023-01-30T08:47:12.207Z,79.20
2023-01-30T08:49:39.776Z,80.43
2023-01-30T08:52:07.500Z,80.06
2023-01-30T08:54:36.470Z,80.53
2023-01-30T08:57:04.194Z,80.82
2023-01-30T08:59:31.774Z,81.31
2023-01-30T09:01:59.312Z,82.74
2023-01-30T09:04:26.841Z,81.75
2023-01-30T09:06:54.389Z,82.13
2023-01-30T09:09:21.925Z,82.38
2023-01-30T09:11:50.932Z,81.95
2023-01-30T09:14:19.724Z,81.56
2023-01-30T09:16:48.014Z,81.82
2023-01-30T09:19:15.626Z,82.23
2023-01-30T09:21:43.326Z,82.04
2023-01-30T09:24:10.869Z,81.80
2023-01-30T09:26:40.296Z,81.81
2023-01-30T09:29:09.245Z,82.03
2023-01-30T09:31:36.827Z,82.03
2023-01-30T09:34:04.798Z,82.09
2023-01-30T09:36:32.751Z,81.98
2023-01-30T09:39:00.397Z,82.48
2023-01-30T09:41:43.845Z,82.40
2023-01-30T09:44:31.050Z,82.96
2023-01-30T09:47:07.671Z,82.93
2023-01-30T09:49:44.896Z,82.91
2023-01-30T09:52:24.415Z,82.70
2023-01-30T09:54:56.089Z,82.02
2023-01-30T09:57:25.493Z,82.14
2023-01-30T10:00:01.907Z,82.32
2023-01-30T10:02:49.482Z,82.49
2023-01-30T10:05:17.295Z,83.51
2023-01-30T10:08:01.065Z,84.16
2023-01-30T10:10:42.193Z,83.40
2023-01-30T10:13:26.156Z,84.51
2023-01-30T10:16:02.619Z,83.81
2023-01-30T10:18:53.638Z,84.92
2023-01-30T10:21:32.711Z,83.98
2023-01-30T10:24:18.108Z,84.28
2023-01-30T10:26:46.701Z,84.65
2023-01-30T10:29:19.350Z,85.50
2023-01-30T10:31:55.800Z,85.64
2023-01-30T10:34:28.039Z,85.23
2023-01-30T10:37:01.530Z,85.98
2023-01-30T10:39:40.876Z,86.51
2023-01-30T10:42:18.003Z,86.20
2023-01-30T10:44:45.637Z,87.25
2023-01-30T10:47:46.632Z,88.25
2023-01-30T10:50:18.161Z,88.53
2023-01-30T10:52:55.226Z,87.80
2023-01-30T10:55:37.177Z,88.66
2023-01-30T10:58:13.401Z,89.25
2023-01-30T11:00:44.646Z,88.87
2023-01-30T11:03:23.652Z,88.20
2023-01-30T11:05:52.671Z,89.56
2023-01-30T11:08:24.124Z,88.49
2023-01-30T11:10:52.903Z,89.56
2023-01-30T11:13:21.991Z,89.84
2023-01-30T11:15:53.623Z,89.27
2023-01-30T11:19:17.191Z,89.33
2023-01-30T11:21:21.294Z,90.70
2023-01-30T11:23:50.935Z,91.10
2023-01-30T11:26:26.134Z,91.74
2023-01-30T11:28:57.168Z,92.69
2023-01-30T11:31:40.293Z,93.53
2023-01-30T11:34:16.293Z,93.20
2023-01-30T11:36:46.017Z,93.94
2023-01-30T11:39:23.098Z,93.76
2023-01-30T11:42:04.547Z,94.21
2023-01-30T11:44:34.629Z,93.69
2023-01-30T11:47:04.798Z,95.30
2023-01-30T11:51:31.804Z,94.71
2023-01-30T11:52:29.855Z,95.36
2023-01-30T11:55:03.177Z,96.97
2023-01-30T11:57:30.946Z,96.12
2023-01-30T12:00:01.801Z,96.57
2023-01-30T12:02:39.201Z,95.96
2023-01-30T12:05:23.013Z,96.22
2023-01-30T12:07:52.345Z,96.38
2023-01-30T12:10:29.773Z,96.84
2023-01-30T12:13:01.305Z,97.34
2023-01-30T12:15:31.495Z,98.03
2023-01-30T12:18:06.020Z,97.70
2023-01-30T12:20:47.629Z,98.07
2023-01-30T12:23:19.717Z,97.43
2023-01-30T12:25:57.831Z,100.00
2023-01-30T12:28:36.519Z,98.18
2023-01-30T12:31:09.395Z,97.31
2023-01-30T12:33:37.472Z,97.13
2023-01-30T12:36:15.870Z,96.85
2023-01-30T12:38:57.305Z,96.97
2023-01-30T12:41:37.202Z,97.16
2023-01-30T12:44:31.656Z,96.80
2023-01-30T12:47:16.222Z,97.16
2023-01-30T12:50:06.661Z,97.59
2023-01-30T12:52:53.995Z,97.33
2023-01-30T12:55:30.982Z,97.54
2023-01-30T12:58:01.594Z,97.50
2023-01-30T13:00:41.236Z,96.71
2023-01-30T13:03:23.351Z,95.87
2023-01-30T13:05:55.253Z,96.01
2023-01-30T13:08:37.227Z,95.43
2023-01-30T13:11:22.333Z,96.17
2023-01-30T13:13:56.127Z,95.69
2023-01-30T13:16:33.596Z,95.29
2023-01-30T13:19:07.980Z,95.51
2023-01-30T13:21:42.299Z,95.53
2023-01-30T13:24:23.721Z,94.86
2023-01-30T13:26:53.022Z,95.68
2023-01-30T13:29:29.383Z,95.05
2023-01-30T13:32:00.202Z,95.18
2023-01-30T13:34:34.508Z,95.44
2023-01-30T13:37:06.633Z,94.86
2023-01-30T13:39:42.082Z,95.69
2023-01-30T13:42:18.626Z,94.83
2023-01-30T13:44:46.854Z,94.92
2023-01-30T13:47:25.153Z,95.76
2023-01-30T13:50:01.470Z,95.40
2023-01-30T13:52:34.729Z,95.87
2023-01-30T13:55:08.107Z,95.15
2023-01-30T13:57:48.058Z,95.21
2023-01-30T14:00:30.993Z,94.53
2023-01-30T14:03:25.513Z,94.56
2023-01-30T14:06:12.879Z,95.86
2023-01-30T14:08:50.763Z,96.35
2023-01-30T14:11:48.679Z,95.66
2023-01-30T14:14:27.701Z,96.08
2023-01-30T14:16:57.211Z,96.42
2023-01-30T14:19:36.298Z,96.00
2023-01-30T14:22:17.408Z,96.32
2023-01-30T14:24:45.191Z,95.07
2023-01-30T14:27:31.976Z,94.97
2023-01-30T14:29:59.733Z,94.70
2023-01-30T14:32:53.145Z,94.90
2023-01-30T14:35:26.360Z,93.66
2023-01-30T14:38:19.347Z,93.63
2023-01-30T14:41:07.059Z,93.08
2023-01-30T14:43:39.453Z,93.87
2023-01-30T14:46:12.932Z,94.09
2023-01-30T14:48:45.009Z,93.98
2023-01-30T14:51:22.047Z,93.47
2023-01-30T14:53:56.017Z,93.07
2023-01-30T14:56:40.348Z,92.20
2023-01-30T14:59:19.508Z,92.54
2023-01-30T15:02:07.395Z,92.22
2023-01-30T15:04:43.801Z,91.75
2023-01-30T15:07:16.410Z,91.93
2023-01-30T15:09:52.991Z,92.24
2023-01-30T15:12:38.261Z,92.71
2023-01-30T15:15:19.535Z,91.67
2023-01-30T15:18:07.948Z,91.75
2023-01-30T15:20:55.643Z,91.62
2023-01-30T15:23:51.318Z,92.02
2023-01-30T15:26:30.193Z,91.79
2023-01-30T15:29:16.768Z,91.50
2023-01-30T15:31:56.066Z,92.22
2023-01-30T15:34:24.389Z,91.71
2023-01-30T15:36:51.931Z,92.03
2023-01-30T15:39:21.507Z,91.33
2023-01-30T15:41:49.651Z,91.98
2023-01-30T15:44:33.917Z,91.64
2023-01-30T15:47:20.577Z,91.40
2023-01-30T15:50:01.396Z,90.77
2023-01-30T15:52:38.108Z,91.49
2023-01-30T15:55:07.700Z,91.54
2023-01-30T15:57:39.295Z,92.44
2023-01-30T16:00:13.293Z,92.72
2023-01-30T16:02:44.321Z,92.62
2023-01-30T16:05:17.523Z,92.59
2023-01-30T16:07:47.087Z,92.51
2023-01-30T16:10:17.291Z,93.28
2023-01-30T16:12:45.331Z,93.43
2023-01-30T16:15:26.255Z,93.53
2023-01-30T16:18:05.406Z,94.17
2023-01-30T16:20:59.000Z,93.65
2023-01-30T16:23:31.332Z,93.38
2023-01-30T16:26:00.403Z,93.07
2023-01-30T16:28:30.569Z,93.27
2023-01-30T16:31:00.399Z,93.44
2023-01-30T16:33:35.643Z,92.79
2023-01-30T16:36:04.574Z,94.09
2023-01-30T16:38:37.479Z,93.72
2023-01-30T16:41:05.417Z,94.38
2023-01-30T16:43:34.374Z,93.41
2023-01-30T16:46:37.839Z,93.79
2023-01-30T16:49:06.863Z,93.12
2023-01-30T16:51:34.510Z,93.48
2023-01-30T16:54:04.572Z,92.79
2023-01-30T16:56:35.759Z,92.70
2023-01-30T16:59:03.981Z,92.49
2023-01-30T17:01:42.217Z,92.09
2023-01-30T17:04:20.555Z,92.04
2023-01-30T17:06:55.016Z,92.58
2023-01-30T17:09:43.564Z,92.08
2023-01-30T17:12:37.855Z,91.60
2023-01-30T17:15:26.990Z,91.73
2023-01-30T17:17:54.599Z,91.67
2023-01-30T17:20:23.971Z,91.93
2023-01-30T17:22:53.767Z,92.34
2023-01-30T17:25:30.822Z,93.02
2023-01-30T17:27:58.818Z,92.48
2023-01-30T17:30:26.636Z,93.78
2023-01-30T17:32:54.190Z,93.07
2023-01-30T17:35:23.341Z,93.05
2023-01-30T17:37:59.613Z,93.70
2023-01-30T17:40:35.295Z,93.08
2023-01-30T17:43:02.848Z,93.39
2023-01-30T17:45:31.063Z,93.48
2023-01-30T17:47:58.666Z,93.90
2023-01-30T17:50:28.482Z,93.55
2023-01-30T17:52:56.103Z,92.66
2023-01-30T17:55:23.753Z,92.75
2023-01-30T17:57:51.359Z,93.80
2023-01-30T18:00:21.539Z,92.79
2023-01-30T18:02:49.484Z,93.14
2023-01-30T18:05:17.117Z,92.37
2023-01-30T18:07:46.023Z,92.15
2023-01-30T18:10:17.882Z,92.73
2023-01-30T18:12:46.871Z,93.05
2023-01-30T18:15:15.909Z,92.51
2023-01-30T18:17:47.407Z,91.83
2023-01-30T18:20:17.579Z,92.29
2023-01-30T18:22:47.003Z,91.43
2023-01-30T18:25:16.031Z,91.44
2023-01-30T18:27:44.844Z,91.69
2023-01-30T18:30:16.894Z,91.95
2023-01-30T18:32:52.516Z,91.46
2023-01-30T18:35:20.755Z,91.49
2023-01-30T18:37:50.069Z,91.63
2023-01-30T18:40:21.612Z,92.62
2023-01-30T18:42:49.828Z,91.88
2023-01-30T18:45:17.580Z,91.03
2023-01-30T18:47:45.109Z,91.97
2023-01-30T18:50:13.054Z,92.34
2023-01-30T18:52:58.376Z,92.39
2023-01-30T18:55:26.123Z,92.48
2023-01-30T18:57:53.785Z,92.51
2023-01-30T19:00:22.380Z,91.56
2023-01-30T19:02:53.598Z,91.82
2023-01-30T19:05:21.741Z,91.12
2023-01-30T19:07:49.282Z,92.30
2023-01-30T19:10:19.246Z,91.16
2023-01-30T19:13:04.871Z,91.30
2023-01-30T19:15:32.463Z,91.20
2023-01-30T19:18:00.008Z,92.67
2023-01-30T19:20:28.366Z,92.45
2023-01-30T19:22:56.237Z,92.35
2023-01-30T19:25:25.154Z,92.54
2023-01-30T19:27:54.415Z,91.60
2023-01-30T19:30:23.213Z,92.20
2023-01-30T19:32:53.332Z,92.28
2023-01-30T19:35:21.298Z,91.71
2023-01-30T19:37:49.307Z,93.16
2023-01-30T19:40:17.897Z,92.27
2023-01-30T19:42:47.320Z,92.20
2023-01-30T19:45:14.897Z,93.25
2023-01-30T19:47:42.460Z,92.34
2023-01-30T19:50:11.405Z,92.45
2023-01-30T19:52:40.681Z,92.50
2023-01-30T19:55:09.180Z,93.33
2023-01-30T19:57:36.804Z,92.75
2023-01-30T20:00:06.921Z,92.64
2023-01-30T20:02:34.639Z,93.51
2023-01-30T20:05:02.512Z,93.26
2023-01-30T20:07:30.132Z,92.63
2023-01-30T20:09:57.731Z,92.16
2023-01-30T20:12:25.450Z,92.33
2023-01-30T20:14:53.065Z,92.88
2023-01-30T20:17:21.956Z,92.56
2023-01-30T20:19:49.679Z,93.78
2023-01-30T20:22:17.259Z,92.61
2023-01-30T20:24:44.808Z,92.73
2023-01-30T20:27:12.370Z,93.14
2023-01-30T20:29:39.877Z,92.67
2023-01-30T20:32:07.960Z,93.13
2023-01-30T20:34:36.873Z,92.80
2023-01-30T20:37:04.717Z,92.20
2023-01-30T20:39:32.358Z,93.18
2023-01-30T20:42:00.121Z,92.92
2023-01-30T20:44:27.762Z,91.87
2023-01-30T20:46:56.475Z,93.03
2023-01-30T20:49:24.653Z,92.54
2023-01-30T20:51:55.069Z,92.14
2023-01-30T20:54:24.105Z,92.80
2023-01-30T20:56:54.101Z,92.49
2023-01-30T20:59:24.124Z,91.63
2023-01-30T21:01:52.081Z,91.94
2023-01-30T21:04:21.244Z,91.36
2023-01-30T21:06:48.790Z,92.56
2023-01-30T21:09:20.077Z,91.96
2023-01-30T21:11:48.947Z,92.82
2023-01-30T21:14:17.479Z,92.69
2023-01-30T21:16:46.227Z,92.07
2023-01-30T21:19:16.403Z,91.69
2023-01-30T21:21:50.027Z,91.95
2023-01-30T21:24:21.158Z,92.32
2023-01-30T21:26:49.141Z,91.51
2023-01-30T21:29:19.162Z,91.71
2023-01-30T21:31:47.553Z,91.01
2023-01-30T21:34:15.481Z,91.51
2023-01-30T21:36:43.068Z,91.83
2023-01-30T21:39:31.615Z,91.71
2023-01-30T21:42:19.735Z,91.84
2023-01-30T21:44:49.799Z,91.60
2023-01-30T21:47:17.909Z,92.35
2023-01-30T21:49:45.475Z,92.20
2023-01-30T21:52:13.072Z,90.85
2023-01-30T21:54:40.664Z,91.33
2023-01-30T21:57:09.578Z,91.90
2023-01-30T21:59:37.589Z,92.20
2023-01-30T22:02:05.192Z,91.67
2023-01-30T22:04:35.696Z,91.57
2023-01-30T22:07:06.445Z,91.52
2023-01-30T22:09:34.380Z,91.14
2023-01-30T22:12:01.933Z,91.23
2023-01-30T22:14:30.924Z,90.89
2023-01-30T22:16:58.540Z,91.84
2023-01-30T22:19:26.155Z,90.68
2023-01-30T22:21:53.778Z,91.04
2023-01-30T22:24:21.591Z,91.26
2023-01-30T22:26:49.515Z,90.47
2023-01-30T22:29:18.027Z,91.11
2023-01-30T22:31:46.900Z,90.48
2023-01-30T22:34:14.425Z,91.27
2023-01-30T22:36:42.032Z,91.20
2023-01-30T22:39:09.599Z,91.86
2023-01-30T22:41:37.179Z,91.89
2023-01-30T22:44:07.230Z,92.09
2023-01-30T22:46:36.921Z,92.30
2023-01-30T22:49:07.681Z,91.88
2023-01-30T22:51:38.411Z,92.61
2023-01-30T22:54:07.828Z,92.39
2023-01-30T22:56:38.358Z,90.89
2023-01-30T22:59:06.718Z,92.49
2023-01-30T23:01:36.010Z,91.59
2023-01-30T23:04:07.125Z,91.47
2023-01-30T23:06:36.796Z,92.28
2023-01-30T23:09:06.302Z,92.12
2023-01-30T23:11:36.866Z,92.60
2023-01-30T23:14:09.982Z,92.84
2023-01-30T23:16:39.687Z,92.50
2023-01-30T23:19:09.362Z,92.33
2023-01-30T23:21:39.178Z,92.26
2023-01-30T23:24:10.359Z,92.28
2023-01-30T23:26:40.309Z,91.84
2023-01-30T23:29:12.983Z,92.47
2023-01-30T23:31:41.861Z,92.18
2023-01-30T23:34:14.216Z,92.01
2023-01-30T23:36:41.776Z,91.85
2023-01-30T23:39:10.969Z,90.93
2023-01-30T23:41:38.918Z,91.42
2023-01-30T23:44:06.874Z,91.04
2023-01-30T23:46:36.853Z,91.71
2023-01-30T23:49:06.778Z,90.90
2023-01-30T23:51:37.545Z,91.29
2023-01-30T23:54:06.593Z,90.35
2023-01-30T23:56:36.411Z,91.03
2023-01-30T23:59:04.453Z,90.40
